Time;durP1;ratioP1;P1;durP2;ratioP2;P2;SDS_P1;SDS_P2;PMS_P1;PMS_P2;Temp;Humidity;BMP_temperature;BMP_pressure;BME280_temperature;BME280_humidity;BME280_pressure;Samples;Min_cycle;Max_cycle;Signal;HPM_P1;HPM_P2
2022/05/29 03:31:55;;;;;;;;;;;17.20;61.60;;;;;;4770153;30;20277;-67
2022/05/29 03:34:22;;;;;;;;;;;17.20;61.60;;;;;;4774128;30;19926;-71
2022/05/29 03:36:48;;;;;;;;;;;17.20;61.70;;;;;;4772718;30;19930;-71
2022/05/29 03:39:14;;;;;;;;;;;17.20;61.70;;;;;;4785559;30;19938;-71
2022/05/29 03:41:44;;;;;;;;;;;17.20;61.70;;;;;;4758363;30;19926;-71
2022/05/29 03:44:10;;;;;;;;;;;17.20;61.90;;;;;;4774184;30;19990;-72
2022/05/29 03:46:36;;;;;;;;;;;17.20;62.00;;;;;;4774427;30;19929;-71
2022/05/29 03:49:01;;;;;;;;;;;17.30;62.30;;;;;;4774296;30;19956;-73
2022/05/29 03:51:27;;;;;;;;;;;17.50;62.60;;;;;;4773410;30;19987;-74
2022/05/29 03:53:52;;;;;;;;;;;17.60;58.50;;;;;;4774512;30;20016;-72
2022/05/29 03:56:18;;;;;;;;;;;17.50;59.20;;;;;;4773958;30;20242;-71
2022/05/29 03:58:44;;;;;;;;;;;17.40;59.30;;;;;;4788198;30;20246;-72
2022/05/29 04:01:09;;;;;;;;;;;17.30;59.10;;;;;;4773373;30;19926;-72
2022/05/29 04:03:35;;;;;;;;;;;17.30;62.50;;;;;;4776348;30;19925;-70
2022/05/29 04:06:01;;;;;;;;;;;17.50;62.50;;;;;;4791717;30;20047;-72
2022/05/29 04:13:55;;;;;;;;;;;18.10;61.90;;;;;;4792028;30;19925;-71
2022/05/29 04:16:20;;;;;;;;;;;18.20;61.60;;;;;;4791999;30;19990;-70
2022/05/29 04:18:46;;;;;;;;;;;18.30;61.50;;;;;;4790851;30;20272;-70
2022/05/29 04:21:12;;;;;;;;;;;18.30;61.50;;;;;;4790902;30;19932;-71
2022/05/29 04:23:37;;;;;;;;;;;18.30;61.70;;;;;;4791424;30;19929;-70
2022/05/29 04:26:03;;;;;;;;;;;18.40;61.50;;;;;;4790613;30;19925;-70
2022/05/29 04:28:29;;;;;;;;;;;18.50;61.50;;;;;;4761358;30;19949;-70
2022/05/29 04:30:54;;;;;;;;;;;18.50;58.30;;;;;;4791018;30;19926;-71
2022/05/29 04:33:22;;;;;;;;;;;18.20;56.90;;;;;;4776213;30;19933;-70
2022/05/29 04:35:48;;;;;;;;;;;17.90;58.00;;;;;;4772685;30;19925;-71
2022/05/29 04:38:15;;;;;;;;;;;17.70;58.80;;;;;;4755490;30;19926;-70
2022/05/29 04:40:41;;;;;;;;;;;17.60;59.60;;;;;;4762098;30;19977;-71
2022/05/29 04:43:07;;;;;;;;;;;17.90;62.30;;;;;;4783195;30;19975;-72
2022/05/29 04:45:32;;;;;;;;;;;18.10;61.90;;;;;;4790810;30;20006;-71
2022/05/29 04:47:58;;;;;;;;;;;18.40;61.40;;;;;;4774654;30;19925;-70
2022/05/29 04:50:24;;;;;;;;;;;18.60;59.40;;;;;;4772865;30;19973;-70
2022/05/29 04:52:50;;;;;;;;;;;18.70;60.70;;;;;;4802110;29;19926;-70
2022/05/29 04:55:16;;;;;;;;;;;18.90;60.60;;;;;;4772667;30;19937;-71
2022/05/29 04:57:42;;;;;;;;;;;18.80;55.70;;;;;;4757393;30;19936;-70
2022/05/29 05:00:08;;;;;;;;;;;18.60;59.90;;;;;;4786446;30;20016;-71
2022/05/29 05:02:34;;;;;;;;;;;18.70;60.30;;;;;;4773196;30;19926;-70
2022/05/29 05:04:59;;;;;;;;;;;18.80;60.30;;;;;;4772882;30;19929;-70
2022/05/29 05:07:25;;;;;;;;;;;18.50;57.50;;;;;;4772580;30;19988;-70
2022/05/29 05:09:50;;;;;;;;;;;18.60;60.30;;;;;;4772860;30;20012;-71
2022/05/29 05:12:16;;;;;;;;;;;18.70;60.60;;;;;;4772964;30;20391;-71
2022/05/29 05:14:42;;;;;;;;;;;18.70;61.00;;;;;;4756608;30;20353;-72
2022/05/29 05:17:08;;;;;;;;;;;18.60;60.80;;;;;;4772437;30;19936;-71
2022/05/29 05:19:33;;;;;;;;;;;18.60;58.10;;;;;;4773003;30;19995;-70
2022/05/29 05:22:00;;;;;;;;;;;18.50;59.90;;;;;;4772954;30;20257;-71
2022/05/29 05:24:27;;;;;;;;;;;18.50;60.30;;;;;;4772647;30;19930;-69
2022/05/29 05:26:52;;;;;;;;;;;18.50;60.40;;;;;;4772971;30;19925;-73
2022/05/29 05:29:18;;;;;;;;;;;18.50;60.70;;;;;;4786006;30;20260;-70
2022/05/29 05:31:43;;;;;;;;;;;18.50;60.60;;;;;;4772569;30;19926;-72
2022/05/29 05:34:09;;;;;;;;;;;18.50;60.80;;;;;;4772207;30;19925;-69
2022/05/29 05:36:35;;;;;;;;;;;18.40;59.30;;;;;;4773009;30;19972;-70
2022/05/29 05:39:00;;;;;;;;;;;18.50;60.90;;;;;;4772590;30;20345;-69
2022/05/29 05:41:26;;;;;;;;;;;18.50;61.10;;;;;;4772408;30;19936;-69
2022/05/29 05:43:51;;;;;;;;;;;18.50;61.20;;;;;;4772668;30;19926;-70
2022/05/29 05:46:18;;;;;;;;;;;18.60;61.50;;;;;;4771752;30;20021;-70
2022/05/29 05:48:44;;;;;;;;;;;18.60;61.60;;;;;;4772308;30;19925;-69
2022/05/29 05:51:10;;;;;;;;;;;18.60;61.90;;;;;;4772958;30;20328;-70
2022/05/29 05:53:37;;;;;;;;;;;18.60;62.20;;;;;;4772153;30;20346;-71
2022/05/29 05:56:04;;;;;;;;;;;18.60;61.30;;;;;;4757015;30;19926;-69
2022/05/29 05:58:29;;;;;;;;;;;18.70;62.00;;;;;;4757012;30;19936;-70
2022/05/29 06:00:55;;;;;;;;;;;18.60;61.60;;;;;;4772671;30;19926;-68
2022/05/29 06:03:20;;;;;;;;;;;18.60;61.90;;;;;;4759781;30;19926;-71
2022/05/29 06:05:48;;;;;;;;;;;18.60;62.40;;;;;;4760100;30;19926;-71
2022/05/29 06:08:14;;;;;;;;;;;18.60;61.40;;;;;;4760835;30;19952;-69
2022/05/29 06:10:39;;;;;;;;;;;18.60;62.30;;;;;;4759954;30;20358;-69
2022/05/29 06:13:06;;;;;;;;;;;18.50;57.50;;;;;;4775275;30;19926;-71
2022/05/29 06:15:32;;;;;;;;;;;18.40;60.50;;;;;;4788779;30;20015;-70
2022/05/29 06:17:58;;;;;;;;;;;18.40;60.50;;;;;;4759793;30;19925;-76
2022/05/29 06:20:27;;;;;;;;;;;18.40;61.00;;;;;;4775264;30;19926;-73
2022/05/29 06:22:52;;;;;;;;;;;18.40;61.40;;;;;;4775293;30;19936;-71
2022/05/29 06:25:18;;;;;;;;;;;18.50;61.20;;;;;;4774708;30;20328;-71
2022/05/29 06:27:44;;;;;;;;;;;18.40;58.10;;;;;;4759958;30;19969;-72
2022/05/29 06:30:14;;;;;;;;;;;18.40;61.10;;;;;;4775076;30;20025;-71
2022/05/29 06:32:39;;;;;;;;;;;18.30;60.00;;;;;;4759411;30;19926;-71
2022/05/29 06:35:07;;;;;;;;;;;18.30;61.00;;;;;;4775140;30;20032;-70
2022/05/29 06:37:32;;;;;;;;;;;18.30;60.80;;;;;;4775339;30;19926;-72
2022/05/29 06:39:58;;;;;;;;;;;18.30;61.10;;;;;;4759549;30;20416;-72
2022/05/29 06:42:24;;;;;;;;;;;18.30;61.00;;;;;;4759204;30;19936;-71
2022/05/29 06:44:50;;;;;;;;;;;18.30;61.00;;;;;;4759567;30;20331;-72
2022/05/29 06:47:17;;;;;;;;;;;18.20;59.00;;;;;;4775408;30;19930;-71
2022/05/29 06:49:42;;;;;;;;;;;18.20;61.00;;;;;;4755416;30;19959;-73
2022/05/29 06:52:09;;;;;;;;;;;18.10;61.20;;;;;;4776295;30;19990;-72
2022/05/29 06:54:35;;;;;;;;;;;18.20;60.70;;;;;;4762453;30;19925;-72
2022/05/29 06:57:01;;;;;;;;;;;18.30;61.70;;;;;;4781892;30;19926;-72
2022/05/29 06:59:26;;;;;;;;;;;18.30;62.10;;;;;;4774013;30;20265;-71
2022/05/29 07:07:22;;;;;;;;;;;18.70;61.70;;;;;;4774702;30;19926;-70
2022/05/29 07:09:47;;;;;;;;;;;18.50;54.60;;;;;;4774023;30;19933;-72
2022/05/29 07:12:16;;;;;;;;;;;18.40;55.40;;;;;;4773938;30;20443;-71
2022/05/29 07:14:44;;;;;;;;;;;18.20;56.60;;;;;;4757232;30;19925;-70
2022/05/29 07:17:11;;;;;;;;;;;18.40;61.00;;;;;;4777142;30;19926;-71
2022/05/29 07:19:37;;;;;;;;;;;18.60;60.80;;;;;;4775094;30;19930;-70
2022/05/29 07:22:02;;;;;;;;;;;18.80;60.80;;;;;;4774137;30;19936;-76
2022/05/29 07:24:30;;;;;;;;;;;18.90;60.50;;;;;;4774231;30;20390;-75
2022/05/29 07:26:56;;;;;;;;;;;18.70;56.10;;;;;;4773834;30;19936;-73
2022/05/29 07:29:22;;;;;;;;;;;18.50;57.10;;;;;;4758249;30;19922;-71
2022/05/29 07:31:48;;;;;;;;;;;18.50;58.10;;;;;;4758107;30;19962;-73
2022/05/29 07:34:13;;;;;;;;;;;18.50;59.90;;;;;;4773838;30;19932;-72
2022/05/29 07:36:39;;;;;;;;;;;18.80;60.10;;;;;;4757948;30;20346;-72
2022/05/29 07:39:05;;;;;;;;;;;18.90;59.60;;;;;;4773744;30;19926;-73
2022/05/29 07:44:14;;;;;;;;;;;19.30;58.90;;;;;;4788093;30;19933;-75
2022/05/29 07:46:40;;;;;;;;;;;19.50;58.00;;;;;;4773801;30;19926;-77
2022/05/29 07:49:06;;;;;;;;;;;19.60;57.90;;;;;;4773769;30;20262;-75
2022/05/29 07:51:33;;;;;;;;;;;19.70;57.40;;;;;;4774108;30;20316;-77
2022/05/29 07:53:58;;;;;;;;;;;19.80;57.40;;;;;;4759076;30;20242;-79
2022/05/29 07:56:25;;;;;;;;;;;19.90;56.80;;;;;;4773445;30;19935;-71
2022/05/29 07:58:50;;;;;;;;;;;20.10;56.60;;;;;;4774021;30;19994;-72
2022/05/29 08:01:16;;;;;;;;;;;20.10;56.60;;;;;;4757821;30;20369;-73
2022/05/29 08:03:42;;;;;;;;;;;20.20;56.20;;;;;;4773529;30;19932;-74
2022/05/29 08:06:08;;;;;;;;;;;20.20;56.10;;;;;;4773577;30;19993;-75
2022/05/29 08:08:34;;;;;;;;;;;20.10;55.80;;;;;;4773428;30;20330;-73
2022/05/29 08:10:59;;;;;;;;;;;20.10;56.60;;;;;;4757699;30;19926;-76
2022/05/29 08:13:25;;;;;;;;;;;20.10;56.20;;;;;;4773777;30;19940;-73
2022/05/29 08:15:51;;;;;;;;;;;20.20;56.30;;;;;;4773554;30;19922;-73
2022/05/29 08:18:16;;;;;;;;;;;20.20;56.10;;;;;;4773757;30;20010;-78
2022/05/29 08:20:42;;;;;;;;;;;20.20;55.60;;;;;;4787573;30;20285;-78
2022/05/29 08:23:08;;;;;;;;;;;20.20;56.10;;;;;;4773360;30;20352;-74
2022/05/29 08:31:02;;;;;;;;;;;20.00;57.00;;;;;;4773209;30;20314;-73
2022/05/29 08:33:30;;;;;;;;;;;19.90;57.00;;;;;;4773445;30;19994;-72
2022/05/29 08:36:24;;;;;;;;;;;19.90;57.40;;;;;;4773287;30;19940;-74
2022/05/29 08:38:52;;;;;;;;;;;19.90;60.60;;;;;;4771864;30;20350;-72
2022/05/29 08:41:27;;;;;;;;;;;19.90;58.80;;;;;;4773433;30;19926;-74
2022/05/29 08:44:00;;;;;;;;;;;19.80;59.10;;;;;;4757282;30;19926;-72
2022/05/29 08:46:31;;;;;;;;;;;19.80;59.60;;;;;;4773124;30;19937;-71
2022/05/29 08:48:57;;;;;;;;;;;19.80;59.60;;;;;;4773535;30;19926;-72
2022/05/29 08:51:39;;;;;;;;;;;19.70;59.60;;;;;;4773131;30;19925;-79
2022/05/29 08:54:05;;;;;;;;;;;19.80;60.00;;;;;;4772122;30;20261;-77
2022/05/29 08:56:33;;;;;;;;;;;19.80;60.30;;;;;;4757196;30;20001;-77
2022/05/29 08:59:03;;;;;;;;;;;19.80;62.20;;;;;;4772603;30;19976;-80
2022/05/29 09:01:41;;;;;;;;;;;19.80;59.80;;;;;;4772879;30;19932;-77
2022/05/29 09:04:10;;;;;;;;;;;19.70;59.10;;;;;;4773102;30;19944;-75
2022/05/29 09:06:45;;;;;;;;;;;19.70;58.60;;;;;;4771144;30;19930;-78
2022/05/29 09:09:24;;;;;;;;;;;19.70;58.80;;;;;;4756771;30;19933;-77
2022/05/29 09:11:54;;;;;;;;;;;19.70;58.90;;;;;;4784644;30;20257;-71
2022/05/29 09:14:24;;;;;;;;;;;19.70;58.90;;;;;;4758702;30;19936;-74
2022/05/29 09:16:56;;;;;;;;;;;19.70;59.40;;;;;;4786582;30;19926;-73
2022/05/29 09:19:34;;;;;;;;;;;19.60;60.00;;;;;;4763534;30;20310;-75
2022/05/29 09:22:21;;;;;;;;;;;19.60;60.00;;;;;;4784536;29;19956;-74
2022/05/29 09:25:05;;;;;;;;;;;19.70;60.20;;;;;;4786553;30;19936;-74
2022/05/29 09:27:32;;;;;;;;;;;19.60;60.00;;;;;;4772374;30;20288;-73
2022/05/29 09:29:57;;;;;;;;;;;19.70;60.60;;;;;;4770957;30;19925;-73
2022/05/29 09:32:25;;;;;;;;;;;19.70;60.70;;;;;;4786102;30;19925;-73
2022/05/29 09:34:57;;;;;;;;;;;19.60;61.10;;;;;;4757037;30;19926;-73
2022/05/29 09:37:29;;;;;;;;;;;19.60;61.10;;;;;;4756393;30;19925;-74
2022/05/29 09:39:57;;;;;;;;;;;19.60;61.20;;;;;;4772473;30;19937;-73
2022/05/29 09:42:30;;;;;;;;;;;19.60;61.40;;;;;;4756081;30;20385;-73
2022/05/29 09:45:01;;;;;;;;;;;19.60;61.60;;;;;;4769162;30;20086;-73
2022/05/29 09:50:14;;;;;;;;;;;19.50;61.60;;;;;;4772117;30;19926;-73
2022/05/29 09:52:43;;;;;;;;;;;19.50;61.00;;;;;;4756922;30;20389;-76
2022/05/29 09:55:28;;;;;;;;;;;19.50;60.70;;;;;;4756764;30;19932;-78
2022/05/29 09:57:58;;;;;;;;;;;19.50;60.30;;;;;;4756964;30;19937;-72
2022/05/29 10:00:24;;;;;;;;;;;19.50;59.50;;;;;;4772962;30;19969;-79
2022/05/29 10:02:50;;;;;;;;;;;19.40;59.20;;;;;;4770601;30;20341;-75
2022/05/29 10:05:34;;;;;;;;;;;19.40;58.40;;;;;;4756390;30;20024;-72
2022/05/29 10:08:15;;;;;;;;;;;19.40;58.40;;;;;;4771689;30;20403;-74
2022/05/29 10:10:41;;;;;;;;;;;19.40;58.80;;;;;;4771798;30;19932;-74
2022/05/29 10:13:06;;;;;;;;;;;19.30;58.90;;;;;;4779036;30;19926;-73
2022/05/29 10:15:37;;;;;;;;;;;19.30;59.00;;;;;;4778323;30;20356;-75
2022/05/29 10:18:24;;;;;;;;;;;19.30;59.20;;;;;;4774005;30;19925;-75
2022/05/29 10:20:50;;;;;;;;;;;19.20;58.40;;;;;;4739789;30;20003;-75
2022/05/29 10:23:31;;;;;;;;;;;19.20;59.70;;;;;;4740620;30;19930;-73
2022/05/29 10:25:59;;;;;;;;;;;19.20;60.00;;;;;;4772100;30;20024;-75
2022/05/29 10:28:34;;;;;;;;;;;19.20;60.20;;;;;;4783423;30;19986;-73
2022/05/29 10:31:02;;;;;;;;;;;19.20;57.60;;;;;;4773712;30;19929;-75
2022/05/29 10:33:30;;;;;;;;;;;19.10;56.80;;;;;;4788984;30;20294;-75
2022/05/29 10:36:09;;;;;;;;;;;19.00;57.30;;;;;;4773957;30;20017;-74
2022/05/29 10:38:36;;;;;;;;;;;19.00;58.60;;;;;;4789677;30;19936;-76
2022/05/29 10:41:03;;;;;;;;;;;18.90;58.50;;;;;;4786780;30;20009;-74
2022/05/29 10:43:48;;;;;;;;;;;18.90;57.90;;;;;;4789603;30;19926;-74
2022/05/29 10:46:16;;;;;;;;;;;18.90;58.50;;;;;;4773666;30;19948;-75
2022/05/29 10:48:45;;;;;;;;;;;18.80;58.60;;;;;;4762014;30;20333;-76
2022/05/29 10:51:14;;;;;;;;;;;18.80;58.90;;;;;;4786991;30;19983;-75
2022/05/29 10:53:42;;;;;;;;;;;18.80;58.50;;;;;;4774566;30;19925;-77
2022/05/29 10:56:26;;;;;;;;;;;18.70;58.60;;;;;;4770367;30;19955;-76
2022/05/29 10:59:10;;;;;;;;;;;18.80;59.00;;;;;;4776350;30;20314;-73
2022/05/29 11:04:35;;;;;;;;;;;18.70;59.00;;;;;;4781026;30;19930;-74
2022/05/29 11:07:18;;;;;;;;;;;18.70;59.70;;;;;;4788718;30;19961;-73
2022/05/29 11:09:43;;;;;;;;;;;18.80;60.80;;;;;;4774244;30;19933;-74
2022/05/29 11:12:38;;;;;;;;;;;18.90;59.90;;;;;;4787647;30;20352;-75
2022/05/29 11:15:09;;;;;;;;;;;18.80;58.70;;;;;;4776922;30;19964;-75
2022/05/29 11:17:43;;;;;;;;;;;18.70;59.00;;;;;;4791844;30;19925;-75
2022/05/29 11:20:11;;;;;;;;;;;18.70;59.50;;;;;;4777014;30;19925;-74
2022/05/29 11:22:56;;;;;;;;;;;18.60;59.50;;;;;;4791909;30;20328;-77
2022/05/29 11:25:24;;;;;;;;;;;18.70;59.90;;;;;;4792334;30;20337;-76
2022/05/29 11:59:35;;;;;;;;;;;18.40;58.80;;;;;;4755285;30;19937;-78
2022/05/29 12:02:04;;;;;;;;;;;18.30;58.50;;;;;;4757793;30;19929;-77
2022/05/29 12:04:36;;;;;;;;;;;18.30;58.80;;;;;;4759056;30;19922;-76
2022/05/29 12:07:22;;;;;;;;;;;18.30;59.00;;;;;;4755211;30;20297;-75
2022/05/29 12:10:01;;;;;;;;;;;18.30;59.40;;;;;;4755455;30;19937;-79
2022/05/29 12:12:33;;;;;;;;;;;18.30;59.10;;;;;;4743462;30;19926;-79
2022/05/29 12:15:00;;;;;;;;;;;18.20;58.70;;;;;;4758028;30;19934;-76
2022/05/29 12:17:31;;;;;;;;;;;18.30;58.50;;;;;;4761880;30;19964;-77
2022/05/29 12:20:07;;;;;;;;;;;18.30;58.60;;;;;;4751761;30;20346;-76
2022/05/29 12:22:45;;;;;;;;;;;18.30;58.70;;;;;;4755557;30;19949;-76
2022/05/29 12:25:20;;;;;;;;;;;18.30;58.60;;;;;;4737306;30;19934;-79
2022/05/29 12:27:46;;;;;;;;;;;18.30;58.30;;;;;;4755068;30;20020;-78
2022/05/29 12:30:22;;;;;;;;;;;18.30;58.50;;;;;;4740013;30;19927;-80
2022/05/29 12:32:47;;;;;;;;;;;18.30;59.20;;;;;;4755066;30;20310;-79
2022/05/29 12:35:17;;;;;;;;;;;18.40;59.00;;;;;;4739422;30;19984;-79
2022/05/29 12:38:02;;;;;;;;;;;18.40;59.00;;;;;;4755928;30;19949;-79
2022/05/29 12:40:48;;;;;;;;;;;18.40;58.90;;;;;;4738197;30;20338;-81
2022/05/29 12:43:29;;;;;;;;;;;18.50;59.20;;;;;;4752224;30;20351;-74
2022/05/29 12:46:07;;;;;;;;;;;18.50;59.10;;;;;;4752871;30;19937;-80
2022/05/29 12:48:53;;;;;;;;;;;18.50;58.70;;;;;;4753578;30;19922;-79
2022/05/29 12:51:39;;;;;;;;;;;18.50;58.50;;;;;;4732364;30;19926;-78
2022/05/29 12:54:18;;;;;;;;;;;18.60;58.40;;;;;;4755224;30;20378;-77
2022/05/29 12:57:00;;;;;;;;;;;18.50;58.40;;;;;;4737523;30;19991;-77
2022/05/29 12:59:44;;;;;;;;;;;18.50;58.50;;;;;;4745921;30;20036;-78
2022/05/29 13:05:58;;;;;;;;;;;18.60;58.80;;;;;;4753714;30;19922;-76
2022/05/29 13:08:48;;;;;;;;;;;18.60;58.70;;;;;;4737537;30;19948;-78
2022/05/29 13:11:17;;;;;;;;;;;18.60;58.50;;;;;;4735391;30;19975;-77
2022/05/29 13:13:43;;;;;;;;;;;18.60;58.40;;;;;;4737275;30;19953;-77
2022/05/29 13:16:27;;;;;;;;;;;18.60;58.50;;;;;;4742542;30;19987;-78
2022/05/29 13:19:18;;;;;;;;;;;18.60;58.40;;;;;;4750370;30;19926;-79
2022/05/29 13:22:10;;;;;;;;;;;18.60;58.30;;;;;;4737275;30;20354;-76
2022/05/29 13:24:40;;;;;;;;;;;18.60;57.60;;;;;;4745945;30;20028;-77
2022/05/29 13:27:09;;;;;;;;;;;18.60;57.30;;;;;;4754607;30;20005;-75
2022/05/29 13:29:43;;;;;;;;;;;18.60;57.70;;;;;;4743011;30;19925;-76
2022/05/29 13:32:12;;;;;;;;;;;18.60;57.90;;;;;;4772036;30;19987;-77
2022/05/29 13:34:38;;;;;;;;;;;18.60;58.80;;;;;;4772435;30;20024;-75
2022/05/29 13:37:06;;;;;;;;;;;18.60;58.80;;;;;;4768883;30;19995;-75
2022/05/29 13:39:51;;;;;;;;;;;18.60;59.10;;;;;;4771722;30;19972;-74
2022/05/29 13:42:25;;;;;;;;;;;18.60;59.10;;;;;;4764189;30;19926;-74
2022/05/29 13:44:50;;;;;;;;;;;18.60;59.40;;;;;;4754671;30;19937;-75
2022/05/29 13:47:22;;;;;;;;;;;18.60;59.40;;;;;;4754647;30;20255;-76
2022/05/29 13:49:50;;;;;;;;;;;18.60;59.40;;;;;;4753884;30;20420;-74
2022/05/29 13:52:21;;;;;;;;;;;18.60;59.50;;;;;;4753204;30;19926;-75
2022/05/29 13:55:05;;;;;;;;;;;18.60;59.60;;;;;;4753357;30;19937;-74
2022/05/29 14:06:19;;;;;;;;;;;18.60;59.90;;;;;;4737163;30;19926;-75
2022/05/29 14:08:53;;;;;;;;;;;18.60;59.80;;;;;;4736667;30;19926;-74
2022/05/29 14:11:19;;;;;;;;;;;18.60;59.80;;;;;;4737383;30;20222;-75
2022/05/29 14:13:44;;;;;;;;;;;18.60;59.90;;;;;;4736289;30;19941;-75
2022/05/29 14:16:10;;;;;;;;;;;18.60;59.90;;;;;;4736878;30;19926;-76
2022/05/29 14:18:44;;;;;;;;;;;18.60;60.00;;;;;;4743298;30;19983;-77
2022/05/29 14:21:31;;;;;;;;;;;18.60;60.00;;;;;;4754174;30;19948;-75
2022/05/29 14:24:00;;;;;;;;;;;18.60;60.20;;;;;;4757532;30;19925;-79
2022/05/29 14:26:49;;;;;;;;;;;18.60;60.20;;;;;;4757826;30;19926;-74
2022/05/29 14:29:20;;;;;;;;;;;18.60;60.40;;;;;;4757794;30;19937;-75
2022/05/29 14:32:04;;;;;;;;;;;18.60;60.40;;;;;;4741650;30;19933;-75
2022/05/29 14:34:40;;;;;;;;;;;18.60;60.40;;;;;;4757461;30;19926;-74
2022/05/29 14:37:12;;;;;;;;;;;18.60;60.40;;;;;;4757701;30;19937;-75
2022/05/29 14:39:40;;;;;;;;;;;18.60;60.50;;;;;;4757577;30;19926;-73
2022/05/29 14:42:29;;;;;;;;;;;18.60;59.90;;;;;;4757353;30;19974;-74
2022/05/29 14:45:04;;;;;;;;;;;18.60;59.50;;;;;;4752076;30;19929;-77
2022/05/29 14:47:39;;;;;;;;;;;18.50;58.70;;;;;;4757442;30;19925;-76
2022/05/29 14:50:10;;;;;;;;;;;18.50;59.00;;;;;;4741855;30;19930;-75
2022/05/29 14:52:40;;;;;;;;;;;18.50;59.80;;;;;;4741138;30;19977;-75
2022/05/29 14:55:15;;;;;;;;;;;18.50;60.00;;;;;;4757286;30;19977;-74
2022/05/29 14:57:59;;;;;;;;;;;18.60;60.20;;;;;;4757053;30;19926;-74
2022/05/29 15:00:38;;;;;;;;;;;18.60;60.90;;;;;;4756255;30;20324;-75
2022/05/29 15:03:16;;;;;;;;;;;18.60;60.00;;;;;;4755905;30;20400;-73
2022/05/29 15:05:47;;;;;;;;;;;18.60;60.00;;;;;;4757245;30;20021;-74
2022/05/29 15:11:02;;;;;;;;;;;18.60;60.30;;;;;;4741070;30;19930;-73
2022/05/29 15:13:31;;;;;;;;;;;18.60;60.30;;;;;;4755652;30;20361;-75
2022/05/29 15:15:58;;;;;;;;;;;18.60;60.30;;;;;;4740952;30;19922;-74
2022/05/29 15:18:26;;;;;;;;;;;18.60;60.40;;;;;;4751843;30;19927;-74
2022/05/29 15:26:26;;;;;;;;;;;18.60;60.80;;;;;;4738932;30;19930;-75
2022/05/29 15:28:53;;;;;;;;;;;18.60;60.70;;;;;;4710060;30;19938;-75
2022/05/29 15:31:36;;;;;;;;;;;18.60;61.00;;;;;;4721508;30;19927;-73
2022/05/29 15:34:14;;;;;;;;;;;18.60;61.20;;;;;;4719616;30;19926;-75
2022/05/29 15:36:50;;;;;;;;;;;18.60;61.40;;;;;;4722630;30;19937;-75
2022/05/29 15:39:39;;;;;;;;;;;18.60;61.30;;;;;;4738275;30;19926;-73
2022/05/29 15:42:24;;;;;;;;;;;18.60;61.40;;;;;;4738782;30;19988;-73
2022/05/29 15:45:11;;;;;;;;;;;18.60;61.40;;;;;;4723638;30;19934;-75
2022/05/29 15:47:49;;;;;;;;;;;18.60;61.30;;;;;;4730566;30;19970;-74
2022/05/29 15:50:27;;;;;;;;;;;18.60;61.30;;;;;;4721100;30;19941;-74
2022/05/29 15:52:55;;;;;;;;;;;18.60;60.80;;;;;;4721838;30;20280;-74
2022/05/29 15:55:23;;;;;;;;;;;18.60;60.20;;;;;;4721119;30;19926;-74
2022/05/29 15:57:50;;;;;;;;;;;18.60;60.00;;;;;;4734107;30;19926;-74
2022/05/29 16:00:25;;;;;;;;;;;18.60;60.00;;;;;;4723129;30;19950;-74
2022/05/29 16:03:03;;;;;;;;;;;18.50;59.70;;;;;;4737626;30;19937;-76
2022/05/29 16:05:33;;;;;;;;;;;18.50;60.10;;;;;;4723332;30;19937;-75
2022/05/29 16:08:22;;;;;;;;;;;18.50;60.40;;;;;;4723609;30;19927;-73
2022/05/29 16:10:49;;;;;;;;;;;18.50;60.40;;;;;;4756412;30;19996;-76
2022/05/29 16:13:33;;;;;;;;;;;18.60;60.00;;;;;;4737779;30;19930;-75
2022/05/29 16:16:07;;;;;;;;;;;18.60;59.90;;;;;;4738083;30;19973;-76
2022/05/29 16:18:41;;;;;;;;;;;18.60;59.80;;;;;;4738071;30;19933;-74
2022/05/29 16:21:14;;;;;;;;;;;18.60;59.60;;;;;;4736349;30;19926;-76
2022/05/29 16:23:48;;;;;;;;;;;18.60;59.50;;;;;;4720874;30;19927;-75
2022/05/29 16:26:17;;;;;;;;;;;18.60;59.50;;;;;;4721268;30;19931;-76
2022/05/29 16:28:52;;;;;;;;;;;18.60;59.50;;;;;;4719675;30;19927;-75
2022/05/29 16:31:22;;;;;;;;;;;18.60;59.50;;;;;;4722242;30;19989;-76
2022/05/29 16:33:48;;;;;;;;;;;18.60;59.50;;;;;;4737757;30;20374;-74
2022/05/29 16:36:20;;;;;;;;;;;18.60;59.50;;;;;;4738493;30;20328;-76
2022/05/29 16:50:27;;;;;;;;;;;18.60;59.50;;;;;;4720111;30;20355;-75
2022/05/29 16:53:05;;;;;;;;;;;18.60;59.50;;;;;;4733554;30;20023;-75
2022/05/29 16:55:31;;;;;;;;;;;18.60;59.60;;;;;;4722587;30;19926;-73
2022/05/29 16:57:58;;;;;;;;;;;18.60;59.60;;;;;;4737124;30;19926;-74
2022/05/29 17:00:26;;;;;;;;;;;18.60;59.60;;;;;;4750704;30;19937;-75
2022/05/29 17:02:57;;;;;;;;;;;18.60;59.50;;;;;;4741433;30;19926;-74
2022/05/29 17:05:28;;;;;;;;;;;18.60;59.50;;;;;;4737582;30;19926;-75
2022/05/29 17:07:54;;;;;;;;;;;18.60;59.40;;;;;;4737658;30;19973;-73
2022/05/29 17:10:30;;;;;;;;;;;18.60;59.00;;;;;;4721768;30;20359;-74
2022/05/29 17:12:57;;;;;;;;;;;18.60;58.10;;;;;;4750694;30;20239;-75
2022/05/29 17:15:34;;;;;;;;;;;18.60;57.70;;;;;;4737326;30;19926;-74
2022/05/29 17:18:00;;;;;;;;;;;18.60;57.50;;;;;;4754450;30;20038;-77
2022/05/29 17:20:28;;;;;;;;;;;18.60;57.50;;;;;;4755586;30;19926;-76
2022/05/29 17:22:59;;;;;;;;;;;18.60;58.00;;;;;;4741787;30;19926;-74
2022/05/29 17:25:30;;;;;;;;;;;18.60;57.80;;;;;;4721523;30;20244;-75
2022/05/29 17:28:16;;;;;;;;;;;18.60;57.90;;;;;;4736798;30;19926;-76
2022/05/29 17:30:46;;;;;;;;;;;18.60;58.10;;;;;;4736847;30;20359;-75
2022/05/29 17:33:22;;;;;;;;;;;18.60;58.00;;;;;;4752344;30;19926;-75
2022/05/29 17:35:51;;;;;;;;;;;18.50;58.10;;;;;;4754721;30;19926;-75
2022/05/29 17:38:20;;;;;;;;;;;18.50;58.20;;;;;;4755004;30;20296;-75
2022/05/29 17:40:51;;;;;;;;;;;18.50;58.20;;;;;;4754580;30;20030;-75
2022/05/29 17:43:18;;;;;;;;;;;18.50;58.30;;;;;;4740023;30;19977;-75
2022/05/29 17:45:45;;;;;;;;;;;18.60;58.40;;;;;;4721773;30;19974;-74
2022/05/29 17:48:30;;;;;;;;;;;18.50;58.50;;;;;;4737195;30;19926;-75
2022/05/29 17:51:07;;;;;;;;;;;18.50;58.60;;;;;;4744509;30;19926;-75
2022/05/29 17:53:48;;;;;;;;;;;18.50;58.60;;;;;;4738965;30;19926;-74
2022/05/29 17:56:13;;;;;;;;;;;18.50;58.60;;;;;;4754038;30;20313;-77
2022/05/29 17:58:39;;;;;;;;;;;18.50;58.70;;;;;;4755914;30;19922;-73
2022/05/29 18:01:05;;;;;;;;;;;18.40;58.70;;;;;;4750509;30;19995;-76
2022/05/29 18:03:33;;;;;;;;;;;18.50;58.90;;;;;;4758009;30;20265;-76
2022/05/29 18:05:59;;;;;;;;;;;18.40;58.90;;;;;;4758103;30;19957;-74
2022/05/29 18:08:25;;;;;;;;;;;18.50;58.90;;;;;;4742359;30;19930;-74
2022/05/29 18:10:51;;;;;;;;;;;18.40;58.00;;;;;;4757443;30;19926;-74
2022/05/29 18:13:18;;;;;;;;;;;18.40;57.10;;;;;;4740946;30;20350;-75
2022/05/29 18:15:44;;;;;;;;;;;18.40;56.30;;;;;;4739954;30;19995;-73
2022/05/29 18:18:10;;;;;;;;;;;18.40;55.50;;;;;;4740361;30;19934;-78
